sensor_id;sensor_type;location;lat;lon;timestamp;P1;durP1;ratioP1;P2;durP2;ratioP2
71914;SDS011;60387;49.994;14.660;2023-04-10T00:02:05;24.63;;;10.30;;
71914;SDS011;60387;49.994;14.660;2023-04-10T00:04:38;23.37;;;10.27;;
71914;SDS011;60387;49.994;14.660;2023-04-10T00:07:12;20.90;;;9.50;;
71914;SDS011;60387;49.994;14.660;2023-04-10T00:09:46;23.38;;;9.35;;
71914;SDS011;60387;49.994;14.660;2023-04-10T00:12:19;23.90;;;9.82;;
71914;SDS011;60387;49.994;14.660;2023-04-10T00:14:53;22.13;;;9.77;;
71914;SDS011;60387;49.994;14.660;2023-04-10T00:17:26;24.80;;;10.07;;
71914;SDS011;60387;49.994;14.660;2023-04-10T00:20:00;23.53;;;9.83;;
71914;SDS011;60387;49.994;14.660;2023-04-10T00:22:33;23.30;;;10.17;;
71914;SDS011;60387;49.994;14.660;2023-04-10T00:25:07;24.47;;;9.80;;
71914;SDS011;60387;49.994;14.660;2023-04-10T00:27:40;21.52;;;10.50;;
71914;SDS011;60387;49.994;14.660;2023-04-10T00:30:13;19.93;;;9.60;;
71914;SDS011;60387;49.994;14.660;2023-04-10T00:32:47;24.77;;;11.67;;
71914;SDS011;60387;49.994;14.660;2023-04-10T00:35:20;23.57;;;10.80;;
71914;SDS011;60387;49.994;14.660;2023-04-10T00:37:54;25.50;;;11.25;;
71914;SDS011;60387;49.994;14.660;2023-04-10T00:40:27;26.47;;;11.43;;
71914;SDS011;60387;49.994;14.660;2023-04-10T00:43:00;23.50;;;10.27;;
71914;SDS011;60387;49.994;14.660;2023-04-10T00:45:33;24.43;;;10.10;;
71914;SDS011;60387;49.994;14.660;2023-04-10T00:48:07;24.00;;;10.13;;
71914;SDS011;60387;49.994;14.660;2023-04-10T00:50:40;23.40;;;10.03;;
71914;SDS011;60387;49.994;14.660;2023-04-10T00:53:13;22.83;;;10.30;;
71914;SDS011;60387;49.994;14.660;2023-04-10T00:55:48;26.58;;;10.55;;
71914;SDS011;60387;49.994;14.660;2023-04-10T00:58:22;24.42;;;10.00;;
71914;SDS011;60387;49.994;14.660;2023-04-10T01:00:55;23.35;;;9.77;;
71914;SDS011;60387;49.994;14.660;2023-04-10T01:03:28;21.38;;;9.70;;
71914;SDS011;60387;49.994;14.660;2023-04-10T01:06:04;25.93;;;10.57;;
71914;SDS011;60387;49.994;14.660;2023-04-10T01:11:38;23.23;;;10.32;;
71914;SDS011;60387;49.994;14.660;2023-04-10T01:17:12;27.33;;;10.30;;
71914;SDS011;60387;49.994;14.660;2023-04-10T01:20:08;25.80;;;10.50;;
71914;SDS011;60387;49.994;14.660;2023-04-10T01:25:44;25.38;;;10.23;;
71914;SDS011;60387;49.994;14.660;2023-04-10T01:31:01;28.00;;;9.88;;
71914;SDS011;60387;49.994;14.660;2023-04-10T01:33:39;23.83;;;10.48;;
71914;SDS011;60387;49.994;14.660;2023-04-10T01:36:20;26.00;;;9.57;;
71914;SDS011;60387;49.994;14.660;2023-04-10T01:38:56;22.95;;;9.43;;
71914;SDS011;60387;49.994;14.660;2023-04-10T01:41:30;26.98;;;10.90;;
71914;SDS011;60387;49.994;14.660;2023-04-10T01:44:05;25.50;;;10.10;;
71914;SDS011;60387;49.994;14.660;2023-04-10T01:46:41;25.33;;;10.65;;
71914;SDS011;60387;49.994;14.660;2023-04-10T01:49:16;26.00;;;10.57;;
71914;SDS011;60387;49.994;14.660;2023-04-10T01:51:50;27.70;;;9.90;;
71914;SDS011;60387;49.994;14.660;2023-04-10T01:54:27;26.20;;;10.40;;
71914;SDS011;60387;49.994;14.660;2023-04-10T01:57:03;25.60;;;10.48;;
71914;SDS011;60387;49.994;14.660;2023-04-10T01:59:37;25.20;;;10.00;;
71914;SDS011;60387;49.994;14.660;2023-04-10T02:02:10;27.98;;;10.55;;
71914;SDS011;60387;49.994;14.660;2023-04-10T02:04:44;23.40;;;9.53;;
71914;SDS011;60387;49.994;14.660;2023-04-10T02:12:43;24.73;;;10.00;;
71914;SDS011;60387;49.994;14.660;2023-04-10T02:15:21;24.47;;;10.03;;
71914;SDS011;60387;49.994;14.660;2023-04-10T02:17:58;26.13;;;10.95;;
71914;SDS011;60387;49.994;14.660;2023-04-10T02:20:34;28.45;;;10.43;;
71914;SDS011;60387;49.994;14.660;2023-04-10T02:23:08;25.48;;;10.43;;
71914;SDS011;60387;49.994;14.660;2023-04-10T02:25:41;26.93;;;10.87;;
71914;SDS011;60387;49.994;14.660;2023-04-10T02:28:15;26.37;;;10.20;;
71914;SDS011;60387;49.994;14.660;2023-04-10T02:30:48;25.53;;;10.40;;
71914;SDS011;60387;49.994;14.660;2023-04-10T02:33:21;25.17;;;9.95;;
71914;SDS011;60387;49.994;14.660;2023-04-10T02:35:54;27.20;;;10.93;;
71914;SDS011;60387;49.994;14.660;2023-04-10T02:38:28;24.47;;;9.87;;
71914;SDS011;60387;49.994;14.660;2023-04-10T02:41:01;25.57;;;9.70;;
71914;SDS011;60387;49.994;14.660;2023-04-10T02:43:34;28.43;;;10.53;;
71914;SDS011;60387;49.994;14.660;2023-04-10T02:46:08;24.67;;;9.90;;
71914;SDS011;60387;49.994;14.660;2023-04-10T02:48:41;21.47;;;9.63;;
71914;SDS011;60387;49.994;14.660;2023-04-10T02:51:14;23.83;;;9.13;;
71914;SDS011;60387;49.994;14.660;2023-04-10T02:53:48;24.67;;;10.10;;
71914;SDS011;60387;49.994;14.660;2023-04-10T02:56:21;22.27;;;8.90;;
71914;SDS011;60387;49.994;14.660;2023-04-10T02:58:54;19.97;;;8.73;;
71914;SDS011;60387;49.994;14.660;2023-04-10T03:01:27;21.30;;;8.50;;
71914;SDS011;60387;49.994;14.660;2023-04-10T03:04:01;23.97;;;9.03;;
71914;SDS011;60387;49.994;14.660;2023-04-10T03:06:34;23.70;;;9.43;;
71914;SDS011;60387;49.994;14.660;2023-04-10T03:09:07;23.75;;;9.25;;
71914;SDS011;60387;49.994;14.660;2023-04-10T03:11:41;20.95;;;8.30;;
71914;SDS011;60387;49.994;14.660;2023-04-10T03:14:14;22.60;;;8.70;;
71914;SDS011;60387;49.994;14.660;2023-04-10T03:16:47;17.00;;;8.07;;
71914;SDS011;60387;49.994;14.660;2023-04-10T03:19:20;23.97;;;9.27;;
71914;SDS011;60387;49.994;14.660;2023-04-10T03:21:54;21.33;;;8.53;;
71914;SDS011;60387;49.994;14.660;2023-04-10T03:24:27;24.93;;;10.17;;
71914;SDS011;60387;49.994;14.660;2023-04-10T03:27:00;22.20;;;8.67;;
71914;SDS011;60387;49.994;14.660;2023-04-10T03:29:34;24.57;;;9.03;;
71914;SDS011;60387;49.994;14.660;2023-04-10T03:32:07;24.17;;;9.33;;
71914;SDS011;60387;49.994;14.660;2023-04-10T03:34:40;23.07;;;8.60;;
71914;SDS011;60387;49.994;14.660;2023-04-10T03:37:13;22.40;;;8.90;;
71914;SDS011;60387;49.994;14.660;2023-04-10T03:39:47;27.07;;;9.93;;
71914;SDS011;60387;49.994;14.660;2023-04-10T03:42:20;22.65;;;8.65;;
71914;SDS011;60387;49.994;14.660;2023-04-10T03:44:53;22.27;;;8.38;;
71914;SDS011;60387;49.994;14.660;2023-04-10T03:47:27;21.87;;;8.60;;
71914;SDS011;60387;49.994;14.660;2023-04-10T03:50:00;21.10;;;8.83;;
71914;SDS011;60387;49.994;14.660;2023-04-10T03:52:33;22.60;;;8.73;;
71914;SDS011;60387;49.994;14.660;2023-04-10T03:55:07;22.73;;;8.43;;
71914;SDS011;60387;49.994;14.660;2023-04-10T03:57:40;21.87;;;8.90;;
71914;SDS011;60387;49.994;14.660;2023-04-10T04:00:14;21.93;;;8.60;;
71914;SDS011;60387;49.994;14.660;2023-04-10T04:02:48;21.80;;;8.38;;
71914;SDS011;60387;49.994;14.660;2023-04-10T04:05:21;21.25;;;8.95;;
71914;SDS011;60387;49.994;14.660;2023-04-10T04:07:55;24.00;;;9.30;;
71914;SDS011;60387;49.994;14.660;2023-04-10T04:10:28;24.07;;;8.50;;
71914;SDS011;60387;49.994;14.660;2023-04-10T04:13:01;22.00;;;9.33;;
71914;SDS011;60387;49.994;14.660;2023-04-10T04:15:34;24.17;;;9.33;;
71914;SDS011;60387;49.994;14.660;2023-04-10T04:18:08;23.83;;;9.47;;
71914;SDS011;60387;49.994;14.660;2023-04-10T04:20:41;24.40;;;9.80;;
71914;SDS011;60387;49.994;14.660;2023-04-10T04:23:14;23.70;;;10.40;;
71914;SDS011;60387;49.994;14.660;2023-04-10T04:25:48;24.90;;;9.67;;
71914;SDS011;60387;49.994;14.660;2023-04-10T04:28:21;21.90;;;9.27;;
71914;SDS011;60387;49.994;14.660;2023-04-10T04:30:55;26.52;;;10.02;;
71914;SDS011;60387;49.994;14.660;2023-04-10T04:33:28;23.47;;;8.83;;
71914;SDS011;60387;49.994;14.660;2023-04-10T04:36:01;21.30;;;9.50;;
71914;SDS011;60387;49.994;14.660;2023-04-10T04:38:35;23.10;;;9.77;;
71914;SDS011;60387;49.994;14.660;2023-04-10T04:41:08;22.07;;;9.30;;
71914;SDS011;60387;49.994;14.660;2023-04-10T04:43:41;22.27;;;9.33;;
71914;SDS011;60387;49.994;14.660;2023-04-10T04:46:14;22.73;;;9.67;;
71914;SDS011;60387;49.994;14.660;2023-04-10T04:48:48;25.40;;;9.33;;
71914;SDS011;60387;49.994;14.660;2023-04-10T04:51:21;24.08;;;8.95;;
71914;SDS011;60387;49.994;14.660;2023-04-10T04:53:54;24.45;;;9.68;;
71914;SDS011;60387;49.994;14.660;2023-04-10T04:56:28;26.47;;;11.17;;
71914;SDS011;60387;49.994;14.660;2023-04-10T04:59:01;26.50;;;10.90;;
71914;SDS011;60387;49.994;14.660;2023-04-10T05:01:34;31.30;;;12.50;;
71914;SDS011;60387;49.994;14.660;2023-04-10T05:04:08;25.57;;;11.37;;
71914;SDS011;60387;49.994;14.660;2023-04-10T05:06:41;26.50;;;10.60;;
71914;SDS011;60387;49.994;14.660;2023-04-10T05:09:14;29.83;;;12.77;;
71914;SDS011;60387;49.994;14.660;2023-04-10T05:11:47;30.37;;;12.27;;
71914;SDS011;60387;49.994;14.660;2023-04-10T05:14:21;30.80;;;13.13;;
71914;SDS011;60387;49.994;14.660;2023-04-10T05:16:54;27.43;;;11.27;;
71914;SDS011;60387;49.994;14.660;2023-04-10T05:19:27;27.23;;;11.60;;
71914;SDS011;60387;49.994;14.660;2023-04-10T05:22:01;27.83;;;11.97;;
71914;SDS011;60387;49.994;14.660;2023-04-10T05:24:34;25.88;;;11.13;;
71914;SDS011;60387;49.994;14.660;2023-04-10T05:27:07;26.37;;;11.67;;
71914;SDS011;60387;49.994;14.660;2023-04-10T05:29:40;25.80;;;11.13;;
71914;SDS011;60387;49.994;14.660;2023-04-10T05:32:14;26.43;;;11.10;;
71914;SDS011;60387;49.994;14.660;2023-04-10T05:34:47;25.07;;;11.33;;
71914;SDS011;60387;49.994;14.660;2023-04-10T05:37:20;27.77;;;11.17;;
71914;SDS011;60387;49.994;14.660;2023-04-10T05:39:54;27.17;;;11.70;;
71914;SDS011;60387;49.994;14.660;2023-04-10T05:42:27;24.93;;;10.77;;
71914;SDS011;60387;49.994;14.660;2023-04-10T05:45:00;24.97;;;11.07;;
71914;SDS011;60387;49.994;14.660;2023-04-10T05:47:33;27.50;;;11.43;;
71914;SDS011;60387;49.994;14.660;2023-04-10T05:50:07;26.00;;;11.63;;
71914;SDS011;60387;49.994;14.660;2023-04-10T05:52:40;27.67;;;12.15;;
71914;SDS011;60387;49.994;14.660;2023-04-10T05:55:14;22.77;;;9.90;;
71914;SDS011;60387;49.994;14.660;2023-04-10T05:57:47;24.00;;;10.33;;
71914;SDS011;60387;49.994;14.660;2023-04-10T06:00:20;25.50;;;10.90;;
71914;SDS011;60387;49.994;14.660;2023-04-10T06:02:53;23.47;;;10.60;;
71914;SDS011;60387;49.994;14.660;2023-04-10T06:05:27;22.70;;;10.43;;
71914;SDS011;60387;49.994;14.660;2023-04-10T06:08:00;24.20;;;10.10;;
71914;SDS011;60387;49.994;14.660;2023-04-10T06:10:33;26.00;;;10.53;;
71914;SDS011;60387;49.994;14.660;2023-04-10T06:13:07;26.60;;;11.03;;
71914;SDS011;60387;49.994;14.660;2023-04-10T06:15:40;23.03;;;10.47;;
71914;SDS011;60387;49.994;14.660;2023-04-10T06:18:13;26.47;;;10.27;;
71914;SDS011;60387;49.994;14.660;2023-04-10T06:20:47;25.30;;;11.10;;
71914;SDS011;60387;49.994;14.660;2023-04-10T06:23:20;24.10;;;10.37;;
71914;SDS011;60387;49.994;14.660;2023-04-10T06:25:54;22.20;;;9.77;;
71914;SDS011;60387;49.994;14.660;2023-04-10T06:28:27;22.90;;;9.85;;
71914;SDS011;60387;49.994;14.660;2023-04-10T06:31:01;25.17;;;10.40;;
71914;SDS011;60387;49.994;14.660;2023-04-10T06:33:34;24.27;;;10.83;;
71914;SDS011;60387;49.994;14.660;2023-04-10T06:36:07;24.30;;;11.23;;
71914;SDS011;60387;49.994;14.660;2023-04-10T06:38:41;29.17;;;11.80;;
71914;SDS011;60387;49.994;14.660;2023-04-10T06:41:14;35.15;;;17.33;;
71914;SDS011;60387;49.994;14.660;2023-04-10T06:43:47;33.70;;;15.90;;
71914;SDS011;60387;49.994;14.660;2023-04-10T06:46:21;24.83;;;10.80;;
71914;SDS011;60387;49.994;14.660;2023-04-10T06:48:54;24.30;;;11.03;;
71914;SDS011;60387;49.994;14.660;2023-04-10T06:51:27;21.53;;;9.57;;
71914;SDS011;60387;49.994;14.660;2023-04-10T06:54:01;23.13;;;9.43;;
71914;SDS011;60387;49.994;14.660;2023-04-10T06:56:34;19.60;;;8.63;;
71914;SDS011;60387;49.994;14.660;2023-04-10T06:59:07;16.63;;;7.47;;
71914;SDS011;60387;49.994;14.660;2023-04-10T07:01:40;23.57;;;10.53;;
71914;SDS011;60387;49.994;14.660;2023-04-10T07:04:14;21.07;;;9.00;;
71914;SDS011;60387;49.994;14.660;2023-04-10T07:06:47;20.97;;;9.03;;
71914;SDS011;60387;49.994;14.660;2023-04-10T07:09:20;17.80;;;8.53;;
71914;SDS011;60387;49.994;14.660;2023-04-10T07:11:54;16.90;;;7.22;;
71914;SDS011;60387;49.994;14.660;2023-04-10T07:14:27;19.55;;;8.85;;
71914;SDS011;60387;49.994;14.660;2023-04-10T07:17:00;19.53;;;8.90;;
71914;SDS011;60387;49.994;14.660;2023-04-10T07:19:34;19.67;;;7.77;;
71914;SDS011;60387;49.994;14.660;2023-04-10T07:22:07;18.87;;;7.80;;
71914;SDS011;60387;49.994;14.660;2023-04-10T07:24:40;15.83;;;7.43;;
71914;SDS011;60387;49.994;14.660;2023-04-10T07:27:14;17.17;;;7.65;;
71914;SDS011;60387;49.994;14.660;2023-04-10T07:29:47;17.00;;;7.33;;
71914;SDS011;60387;49.994;14.660;2023-04-10T07:32:21;18.20;;;7.13;;
71914;SDS011;60387;49.994;14.660;2023-04-10T07:34:54;18.85;;;7.18;;
71914;SDS011;60387;49.994;14.660;2023-04-10T07:37:28;18.38;;;6.70;;
71914;SDS011;60387;49.994;14.660;2023-04-10T07:40:01;16.90;;;6.60;;
71914;SDS011;60387;49.994;14.660;2023-04-10T07:42:34;18.47;;;7.43;;
71914;SDS011;60387;49.994;14.660;2023-04-10T07:45:08;18.63;;;7.47;;
71914;SDS011;60387;49.994;14.660;2023-04-10T07:47:41;16.73;;;7.10;;
71914;SDS011;60387;49.994;14.660;2023-04-10T07:50:15;18.63;;;7.67;;
71914;SDS011;60387;49.994;14.660;2023-04-10T07:52:48;15.13;;;6.70;;
71914;SDS011;60387;49.994;14.660;2023-04-10T07:55:21;15.57;;;6.40;;
71914;SDS011;60387;49.994;14.660;2023-04-10T07:57:55;13.77;;;5.90;;
71914;SDS011;60387;49.994;14.660;2023-04-10T08:00:28;16.70;;;6.53;;
71914;SDS011;60387;49.994;14.660;2023-04-10T08:03:02;19.60;;;9.90;;
71914;SDS011;60387;49.994;14.660;2023-04-10T08:05:36;18.67;;;8.85;;
71914;SDS011;60387;49.994;14.660;2023-04-10T08:08:09;16.47;;;7.10;;
71914;SDS011;60387;49.994;14.660;2023-04-10T08:10:43;16.03;;;6.97;;
71914;SDS011;60387;49.994;14.660;2023-04-10T08:13:16;16.83;;;6.63;;
71914;SDS011;60387;49.994;14.660;2023-04-10T08:15:49;15.97;;;6.70;;
71914;SDS011;60387;49.994;14.660;2023-04-10T08:18:23;16.00;;;6.63;;
71914;SDS011;60387;49.994;14.660;2023-04-10T08:20:56;14.20;;;6.07;;
71914;SDS011;60387;49.994;14.660;2023-04-10T08:23:29;13.87;;;6.10;;
71914;SDS011;60387;49.994;14.660;2023-04-10T08:26:03;14.27;;;5.50;;
71914;SDS011;60387;49.994;14.660;2023-04-10T08:28:36;16.17;;;6.13;;
71914;SDS011;60387;49.994;14.660;2023-04-10T08:31:09;15.63;;;6.40;;
71914;SDS011;60387;49.994;14.660;2023-04-10T08:33:43;12.57;;;5.57;;
71914;SDS011;60387;49.994;14.660;2023-04-10T08:36:16;13.67;;;5.47;;
71914;SDS011;60387;49.994;14.660;2023-04-10T08:38:49;12.93;;;5.07;;
71914;SDS011;60387;49.994;14.660;2023-04-10T08:41:23;14.00;;;4.88;;
71914;SDS011;60387;49.994;14.660;2023-04-10T08:43:56;17.23;;;6.20;;
71914;SDS011;60387;49.994;14.660;2023-04-10T08:46:29;10.47;;;4.17;;
71914;SDS011;60387;49.994;14.660;2023-04-10T08:49:07;10.50;;;4.25;;
71914;SDS011;60387;49.994;14.660;2023-04-10T08:51:47;13.03;;;6.03;;
71914;SDS011;60387;49.994;14.660;2023-04-10T08:54:31;12.35;;;5.18;;
71914;SDS011;60387;49.994;14.660;2023-04-10T08:57:08;12.40;;;5.10;;
71914;SDS011;60387;49.994;14.660;2023-04-10T08:59:47;12.68;;;5.00;;
71914;SDS011;60387;49.994;14.660;2023-04-10T09:02:21;10.88;;;4.43;;
71914;SDS011;60387;49.994;14.660;2023-04-10T09:04:54;10.23;;;4.00;;
71914;SDS011;60387;49.994;14.660;2023-04-10T09:07:30;12.18;;;5.43;;
71914;SDS011;60387;49.994;14.660;2023-04-10T09:10:04;10.50;;;4.40;;
71914;SDS011;60387;49.994;14.660;2023-04-10T09:12:45;12.48;;;4.95;;
71914;SDS011;60387;49.994;14.660;2023-04-10T09:15:19;11.95;;;5.03;;
71914;SDS011;60387;49.994;14.660;2023-04-10T09:17:53;12.47;;;5.07;;
71914;SDS011;60387;49.994;14.660;2023-04-10T09:20:29;13.88;;;5.57;;
71914;SDS011;60387;49.994;14.660;2023-04-10T09:23:18;11.38;;;4.70;;
71914;SDS011;60387;49.994;14.660;2023-04-10T09:25:55;11.33;;;5.00;;
71914;SDS011;60387;49.994;14.660;2023-04-10T09:28:28;14.70;;;4.73;;
71914;SDS011;60387;49.994;14.660;2023-04-10T09:31:01;11.37;;;4.87;;
71914;SDS011;60387;49.994;14.660;2023-04-10T09:34:05;12.03;;;5.50;;
71914;SDS011;60387;49.994;14.660;2023-04-10T09:36:57;11.70;;;4.93;;
71914;SDS011;60387;49.994;14.660;2023-04-10T09:39:37;10.48;;;4.60;;
71914;SDS011;60387;49.994;14.660;2023-04-10T09:42:11;10.68;;;5.03;;
71914;SDS011;60387;49.994;14.660;2023-04-10T09:44:45;12.80;;;5.30;;
71914;SDS011;60387;49.994;14.660;2023-04-10T09:47:19;11.20;;;4.73;;
71914;SDS011;60387;49.994;14.660;2023-04-10T09:49:56;11.25;;;4.53;;
71914;SDS011;60387;49.994;14.660;2023-04-10T09:52:31;11.15;;;5.00;;
71914;SDS011;60387;49.994;14.660;2023-04-10T09:55:06;10.33;;;4.60;;
71914;SDS011;60387;49.994;14.660;2023-04-10T09:57:40;10.98;;;4.57;;
71914;SDS011;60387;49.994;14.660;2023-04-10T10:00:13;9.97;;;4.50;;
71914;SDS011;60387;49.994;14.660;2023-04-10T10:02:47;10.73;;;5.00;;
71914;SDS011;60387;49.994;14.660;2023-04-10T10:05:22;10.70;;;4.68;;
71914;SDS011;60387;49.994;14.660;2023-04-10T10:07:56;11.10;;;5.00;;
71914;SDS011;60387;49.994;14.660;2023-04-10T10:10:30;11.25;;;4.85;;
71914;SDS011;60387;49.994;14.660;2023-04-10T10:13:03;11.20;;;4.93;;
71914;SDS011;60387;49.994;14.660;2023-04-10T10:15:38;13.18;;;5.57;;
71914;SDS011;60387;49.994;14.660;2023-04-10T10:20:59;11.23;;;4.93;;
71914;SDS011;60387;49.994;14.660;2023-04-10T10:23:33;11.30;;;5.23;;
71914;SDS011;60387;49.994;14.660;2023-04-10T10:26:07;10.55;;;4.93;;
71914;SDS011;60387;49.994;14.660;2023-04-10T10:28:41;10.30;;;4.40;;
71914;SDS011;60387;49.994;14.660;2023-04-10T10:31:18;10.10;;;4.60;;
71914;SDS011;60387;49.994;14.660;2023-04-10T10:33:53;10.23;;;4.78;;
71914;SDS011;60387;49.994;14.660;2023-04-10T10:36:27;10.97;;;5.07;;
71914;SDS011;60387;49.994;14.660;2023-04-10T10:42:17;17.35;;;8.48;;
71914;SDS011;60387;49.994;14.660;2023-04-10T10:45:36;11.77;;;5.80;;
71914;SDS011;60387;49.994;14.660;2023-04-10T10:47:52;11.40;;;5.55;;
71914;SDS011;60387;49.994;14.660;2023-04-10T10:53:38;11.00;;;5.07;;
71914;SDS011;60387;49.994;14.660;2023-04-10T10:58:52;12.18;;;4.97;;
71914;SDS011;60387;49.994;14.660;2023-04-10T11:01:27;11.02;;;5.05;;
71914;SDS011;60387;49.994;14.660;2023-04-10T11:04:02;11.50;;;4.97;;
71914;SDS011;60387;49.994;14.660;2023-04-10T11:07:17;10.27;;;4.47;;
71914;SDS011;60387;49.994;14.660;2023-04-10T11:09:51;9.87;;;4.47;;
71914;SDS011;60387;49.994;14.660;2023-04-10T11:12:25;10.30;;;4.47;;
71914;SDS011;60387;49.994;14.660;2023-04-10T11:15:00;10.27;;;4.83;;
71914;SDS011;60387;49.994;14.660;2023-04-10T11:17:55;12.05;;;5.00;;
71914;SDS011;60387;49.994;14.660;2023-04-10T11:20:28;11.05;;;4.95;;
71914;SDS011;60387;49.994;14.660;2023-04-10T11:23:08;8.93;;;4.20;;
71914;SDS011;60387;49.994;14.660;2023-04-10T11:34:00;9.68;;;4.60;;
71914;SDS011;60387;49.994;14.660;2023-04-10T11:36:39;9.63;;;4.10;;
71914;SDS011;60387;49.994;14.660;2023-04-10T11:39:15;8.25;;;3.90;;
71914;SDS011;60387;49.994;14.660;2023-04-10T11:41:52;10.20;;;4.87;;
71914;SDS011;60387;49.994;14.660;2023-04-10T11:44:27;12.13;;;6.03;;
71914;SDS011;60387;49.994;14.660;2023-04-10T11:47:04;10.27;;;4.90;;
71914;SDS011;60387;49.994;14.660;2023-04-10T11:49:38;10.40;;;4.53;;
71914;SDS011;60387;49.994;14.660;2023-04-10T11:52:11;8.80;;;3.93;;
71914;SDS011;60387;49.994;14.660;2023-04-10T11:54:47;9.83;;;4.37;;
71914;SDS011;60387;49.994;14.660;2023-04-10T11:57:21;8.95;;;3.85;;
71914;SDS011;60387;49.994;14.660;2023-04-10T11:59:54;8.90;;;3.85;;
71914;SDS011;60387;49.994;14.660;2023-04-10T12:02:28;11.33;;;5.70;;
71914;SDS011;60387;49.994;14.660;2023-04-10T12:05:01;10.27;;;4.80;;
71914;SDS011;60387;49.994;14.660;2023-04-10T12:07:34;9.17;;;3.60;;
71914;SDS011;60387;49.994;14.660;2023-04-10T12:10:08;14.93;;;7.73;;
71914;SDS011;60387;49.994;14.660;2023-04-10T12:12:41;8.20;;;3.80;;
71914;SDS011;60387;49.994;14.660;2023-04-10T12:15:27;8.30;;;3.40;;
71914;SDS011;60387;49.994;14.660;2023-04-10T12:18:01;10.33;;;4.40;;
71914;SDS011;60387;49.994;14.660;2023-04-10T12:20:35;13.00;;;6.57;;
71914;SDS011;60387;49.994;14.660;2023-04-10T12:23:08;7.83;;;3.47;;
71914;SDS011;60387;49.994;14.660;2023-04-10T12:25:43;8.00;;;3.72;;
71914;SDS011;60387;49.994;14.660;2023-04-10T12:28:16;8.77;;;3.60;;
71914;SDS011;60387;49.994;14.660;2023-04-10T12:30:51;9.50;;;4.25;;
71914;SDS011;60387;49.994;14.660;2023-04-10T12:33:25;8.77;;;3.57;;
71914;SDS011;60387;49.994;14.660;2023-04-10T12:35:58;8.30;;;3.40;;
71914;SDS011;60387;49.994;14.660;2023-04-10T12:41:12;9.00;;;3.97;;
71914;SDS011;60387;49.994;14.660;2023-04-10T12:43:45;10.27;;;4.77;;
71914;SDS011;60387;49.994;14.660;2023-04-10T12:46:22;8.03;;;3.23;;
71914;SDS011;60387;49.994;14.660;2023-04-10T12:49:07;9.30;;;3.88;;
71914;SDS011;60387;49.994;14.660;2023-04-10T12:51:50;10.48;;;4.18;;
71914;SDS011;60387;49.994;14.660;2023-04-10T12:54:31;8.23;;;3.30;;
71914;SDS011;60387;49.994;14.660;2023-04-10T12:57:05;8.80;;;4.05;;
71914;SDS011;60387;49.994;14.660;2023-04-10T12:59:40;8.40;;;3.00;;
71914;SDS011;60387;49.994;14.660;2023-04-10T13:02:14;7.53;;;3.08;;
71914;SDS011;60387;49.994;14.660;2023-04-10T13:04:47;7.57;;;3.37;;
71914;SDS011;60387;49.994;14.660;2023-04-10T13:07:20;11.27;;;5.27;;
71914;SDS011;60387;49.994;14.660;2023-04-10T13:09:54;7.60;;;3.17;;
71914;SDS011;60387;49.994;14.660;2023-04-10T13:12:27;7.67;;;3.20;;
71914;SDS011;60387;49.994;14.660;2023-04-10T13:15:00;8.53;;;3.23;;
71914;SDS011;60387;49.994;14.660;2023-04-10T13:17:34;10.63;;;3.80;;
71914;SDS011;60387;49.994;14.660;2023-04-10T13:20:10;9.83;;;4.20;;
71914;SDS011;60387;49.994;14.660;2023-04-10T13:22:43;8.37;;;3.10;;
71914;SDS011;60387;49.994;14.660;2023-04-10T13:25:17;7.57;;;3.23;;
71914;SDS011;60387;49.994;14.660;2023-04-10T13:27:50;8.43;;;3.57;;
71914;SDS011;60387;49.994;14.660;2023-04-10T13:30:23;7.10;;;2.83;;
71914;SDS011;60387;49.994;14.660;2023-04-10T13:32:57;7.97;;;3.40;;
71914;SDS011;60387;49.994;14.660;2023-04-10T13:35:30;8.30;;;3.43;;
71914;SDS011;60387;49.994;14.660;2023-04-10T13:38:04;8.33;;;3.10;;
71914;SDS011;60387;49.994;14.660;2023-04-10T13:40:37;8.07;;;3.70;;
71914;SDS011;60387;49.994;14.660;2023-04-10T13:43:10;8.90;;;3.53;;
71914;SDS011;60387;49.994;14.660;2023-04-10T13:45:44;7.83;;;3.23;;
71914;SDS011;60387;49.994;14.660;2023-04-10T13:48:17;8.00;;;3.10;;
71914;SDS011;60387;49.994;14.660;2023-04-10T13:50:50;7.63;;;3.40;;
71914;SDS011;60387;49.994;14.660;2023-04-10T13:53:23;7.83;;;3.37;;
71914;SDS011;60387;49.994;14.660;2023-04-10T13:55:57;7.93;;;3.10;;
71914;SDS011;60387;49.994;14.660;2023-04-10T13:58:30;7.37;;;2.73;;
71914;SDS011;60387;49.994;14.660;2023-04-10T14:01:03;7.90;;;3.50;;
71914;SDS011;60387;49.994;14.660;2023-04-10T14:03:37;7.23;;;3.10;;
71914;SDS011;60387;49.994;14.660;2023-04-10T14:06:10;8.00;;;3.10;;
71914;SDS011;60387;49.994;14.660;2023-04-10T14:08:43;7.50;;;3.20;;
71914;SDS011;60387;49.994;14.660;2023-04-10T14:11:17;7.90;;;3.27;;
71914;SDS011;60387;49.994;14.660;2023-04-10T14:13:50;7.43;;;2.80;;
71914;SDS011;60387;49.994;14.660;2023-04-10T14:16:23;8.37;;;3.30;;
71914;SDS011;60387;49.994;14.660;2023-04-10T14:18:56;8.60;;;3.23;;
71914;SDS011;60387;49.994;14.660;2023-04-10T14:21:30;8.50;;;3.50;;
71914;SDS011;60387;49.994;14.660;2023-04-10T14:24:03;8.10;;;3.20;;
71914;SDS011;60387;49.994;14.660;2023-04-10T14:26:36;8.77;;;3.73;;
71914;SDS011;60387;49.994;14.660;2023-04-10T14:29:10;8.60;;;3.10;;
71914;SDS011;60387;49.994;14.660;2023-04-10T14:31:43;8.27;;;3.43;;
71914;SDS011;60387;49.994;14.660;2023-04-10T14:34:16;7.73;;;2.97;;
71914;SDS011;60387;49.994;14.660;2023-04-10T14:36:50;8.13;;;3.07;;
71914;SDS011;60387;49.994;14.660;2023-04-10T14:39:23;7.47;;;3.05;;
71914;SDS011;60387;49.994;14.660;2023-04-10T14:41:57;7.50;;;3.10;;
71914;SDS011;60387;49.994;14.660;2023-04-10T14:44:30;7.37;;;3.00;;
71914;SDS011;60387;49.994;14.660;2023-04-10T14:47:03;7.40;;;3.20;;
71914;SDS011;60387;49.994;14.660;2023-04-10T14:49:37;7.37;;;3.00;;
71914;SDS011;60387;49.994;14.660;2023-04-10T14:52:10;8.20;;;3.37;;
71914;SDS011;60387;49.994;14.660;2023-04-10T14:54:43;9.03;;;3.60;;
71914;SDS011;60387;49.994;14.660;2023-04-10T14:57:16;8.27;;;3.00;;
71914;SDS011;60387;49.994;14.660;2023-04-10T14:59:50;7.03;;;2.90;;
71914;SDS011;60387;49.994;14.660;2023-04-10T15:02:23;8.40;;;3.23;;
71914;SDS011;60387;49.994;14.660;2023-04-10T15:04:56;7.87;;;3.30;;
71914;SDS011;60387;49.994;14.660;2023-04-10T15:07:30;7.97;;;3.53;;
71914;SDS011;60387;49.994;14.660;2023-04-10T15:10:03;7.93;;;3.20;;
71914;SDS011;60387;49.994;14.660;2023-04-10T15:12:37;9.10;;;3.97;;
71914;SDS011;60387;49.994;14.660;2023-04-10T15:15:10;9.20;;;3.97;;
71914;SDS011;60387;49.994;14.660;2023-04-10T15:17:43;8.07;;;3.50;;
71914;SDS011;60387;49.994;14.660;2023-04-10T15:20:16;8.57;;;3.53;;
71914;SDS011;60387;49.994;14.660;2023-04-10T15:22:50;19.07;;;13.07;;
71914;SDS011;60387;49.994;14.660;2023-04-10T15:25:23;16.77;;;11.03;;
71914;SDS011;60387;49.994;14.660;2023-04-10T15:27:56;7.87;;;3.67;;
71914;SDS011;60387;49.994;14.660;2023-04-10T15:30:30;9.13;;;3.47;;
71914;SDS011;60387;49.994;14.660;2023-04-10T15:33:03;9.27;;;3.30;;
71914;SDS011;60387;49.994;14.660;2023-04-10T15:35:36;12.57;;;6.60;;
71914;SDS011;60387;49.994;14.660;2023-04-10T15:38:09;10.60;;;4.80;;
71914;SDS011;60387;49.994;14.660;2023-04-10T15:40:43;8.55;;;3.83;;
71914;SDS011;60387;49.994;14.660;2023-04-10T15:43:16;7.07;;;2.57;;